Terminal Aerodrome Forecast
Issued by NWS Sterling, VA

Current Version | Previous Version | Graphics & Text | Print | Product List | Glossary On
Versions: 1 2 3 4 5 6 7 8 9 10 11 12 13 14 15 16 17 18 19 20 21 22 23 24 25 26
000
FTUS41 KLWX 191700
TAFIAD
TAF
KIAD 191720Z 1918/2024 32016G26KT P6SM FEW045
     FM192200 31009KT P6SM FEW250
     FM200200 VRB03KT P6SM FEW250
     FM201400 18008KT P6SM SCT250
     FM202200 19004KT P6SM SCT040 BKN120=

USA.gov is the U.S. government's official web portal to all federal, state and local government web resources and services.